Assateague Island Natl Seashore, Maryland
Current Conditions -  °F | °C
As of 4:53 PM on Sunday 23 Nov 2014 (Local Time) from KOXB Reporting Station
Broken Clouds Broken Clouds  
Wind Chill: 50°   Ceiling: 4700
Heat Index: 50°   Visibility: 10mi
Dew Point: 46°   Wind: 3mph
Humidity: 86%   Direction: 110°ESE
Pressure: 30.14"   Gusts: NA
Location:  38.12°N, 75.19°W
Report Text: KOXB 232153Z AUTO 11003KT 10SM BKN047 10/08 A3014 RMK AO2 SLP206 T01000078 TSNO
Loading
Personal Weather Stations






























Interactive Weather Map New forecast layout! Learn more

10-Day Weather Forecast

Advertisements
Track Severe Weather on mobile